Observation data for Levelland on 05/22/2019      Previous  Date  Next       Current Mesonet Observations  Soil Data  Daily Summary Page  Observations in Plain Language
KLD1 220500Z 19008KT 15/M07 A2967 RMK A01 T01481066  RH  022%=      5-min Rain = 0
KLD1 220505Z 19007KT 14/M06 A2967 RMK A01 T01431064  RH  023%=      5-min Rain = 0
KLD1 220510Z 19007KT 14/M06 A2967 RMK A01 T01381063  RH  024%=      5-min Rain = 0
KLD1 220515Z 18007KT 13/M06 A2967 RMK A01 T01331063  RH  025%=      5-min Rain = 0
KLD1 220520Z 18008KT 13/M06 A2967 RMK A01 T01311062  RH  026%=      5-min Rain = 0
KLD1 220525Z 19007KT 13/M06 A2967 RMK A01 T01321062  RH  025%=      5-min Rain = 0
KLD1 220530Z 19007KT 13/M06 A2967 RMK A01 T01311061  RH  026%=      5-min Rain = 0
KLD1 220535Z 19008KT 13/M06 A2966 RMK A01 T01331061  RH  025%=      5-min Rain = 0
KLD1 220540Z 20008KT 13/M06 A2966 RMK A01 T01341061  RH  025%=      5-min Rain = 0
KLD1 220545Z 20009KT 14/M06 A2966 RMK A01 T01351059  RH  025%=      5-min Rain = 0
KLD1 220550Z 19010KT 14/M06 A2967 RMK A01 T01361057  RH  026%=      5-min Rain = 0
KLD1 220555Z 19010KT 14/M06 A2966 RMK A01 T01391057  RH  025%=      5-min Rain = 0
KLD1 220600Z 19011KT 14/M06 A2966 RMK A01 T01391056  RH  025%=      5-min Rain = 0
KLD1 220605Z 19011KT 14/M06 A2966 RMK A01 T01391056  RH  026%=      5-min Rain = 0
KLD1 220610Z 20011KT 14/M06 A2966 RMK A01 T01391055  RH  026%=      5-min Rain = 0
KLD1 220615Z 20010KT 14/M06 A2966 RMK A01 T01391056  RH  026%=      5-min Rain = 0
KLD1 220620Z 20009KT 14/M06 A2966 RMK A01 T01371056  RH  026%=      5-min Rain = 0
KLD1 220625Z 19010KT 14/M06 A2966 RMK A01 T01351055  RH  026%=      5-min Rain = 0
KLD1 220630Z 19009KT 13/M05 A2966 RMK A01 T01341054  RH  027%=      5-min Rain = 0
KLD1 220635Z 18010KT 13/M05 A2966 RMK A01 T01311054  RH  027%=      5-min Rain = 0
KLD1 220640Z 18009KT 13/M06 A2966 RMK A01 T01281055  RH  028%=      5-min Rain = 0
KLD1 220645Z 17009KT 12/M05 A2966 RMK A01 T01241054  RH  029%=      5-min Rain = 0
KLD1 220650Z 18007KT 12/M05 A2966 RMK A01 T01221052  RH  029%=      5-min Rain = 0
KLD1 220655Z 19008KT 12/M05 A2966 RMK A01 T01201051  RH  030%=      5-min Rain = 0
KLD1 220700Z 19008KT 12/M05 A2966 RMK A01 T01191051  RH  030%=      5-min Rain = 0
KLD1 220705Z 20008KT 12/M05 A2966 RMK A01 T01211051  RH  030%=      5-min Rain = 0
KLD1 220710Z 20008KT 12/M05 A2966 RMK A01 T01211051  RH  030%=      5-min Rain = 0
KLD1 220715Z 20008KT 12/M05 A2966 RMK A01 T01231052  RH  029%=      5-min Rain = 0
KLD1 220720Z 20008KT 12/M05 A2966 RMK A01 T01241051  RH  029%=      5-min Rain = 0
KLD1 220725Z 20008KT 12/M05 A2966 RMK A01 T01241051  RH  029%=      5-min Rain = 0
KLD1 220730Z 19009KT 13/M05 A2967 RMK A01 T01251050  RH  029%=      5-min Rain = 0
KLD1 220735Z 19010KT 13/M05 A2967 RMK A01 T01281050  RH  029%=      5-min Rain = 0
KLD1 220740Z 19011KT 13/M05 A2967 RMK A01 T01331051  RH  028%=      5-min Rain = 0
KLD1 220745Z 19012KT 14/M05 A2967 RMK A01 T01361052  RH  027%=      5-min Rain = 0
KLD1 220750Z 19013KT 14/M05 A2967 RMK A01 T01371052  RH  027%=      5-min Rain = 0
KLD1 220755Z 19013KT 14/M05 A2967 RMK A01 T01401053  RH  026%=      5-min Rain = 0
KLD1 220800Z 18012KT 14/M05 A2967 RMK A01 T01401053  RH  026%=      5-min Rain = 0
KLD1 220805Z 18012KT 14/M05 A2967 RMK A01 T01391052  RH  026%=      5-min Rain = 0
KLD1 220810Z 19012KT 14/M05 A2967 RMK A01 T01391051  RH  026%=      5-min Rain = 0
KLD1 220815Z 19012KT 14/M05 A2967 RMK A01 T01361049  RH  027%=      5-min Rain = 0
KLD1 220820Z 19010KT 13/M05 A2967 RMK A01 T01331048  RH  028%=      5-min Rain = 0
KLD1 220825Z 19009KT 13/M05 A2967 RMK A01 T01301047  RH  029%=      5-min Rain = 0
KLD1 220830Z 19009KT 13/M05 A2967 RMK A01 T01271046  RH  030%=      5-min Rain = 0
KLD1 220835Z 19009KT 13/M05 A2967 RMK A01 T01271046  RH  030%=      5-min Rain = 0
KLD1 220840Z 19010KT 13/M05 A2967 RMK A01 T01271045  RH  030%=      5-min Rain = 0
KLD1 220845Z 19009KT 13/M05 A2967 RMK A01 T01261045  RH  030%=      5-min Rain = 0
KLD1 220850Z 19009KT 13/M04 A2967 RMK A01 T01261044  RH  031%=      5-min Rain = 0
KLD1 220855Z 18009KT 12/M04 A2967 RMK A01 T01241043  RH  031%=      5-min Rain = 0
KLD1 220900Z 19008KT 12/M04 A2967 RMK A01 T01221042  RH  032%=      5-min Rain = 0
KLD1 220905Z 19008KT 12/M04 A2967 RMK A01 T01181041  RH  033%=      5-min Rain = 0
KLD1 220910Z 19009KT 12/M04 A2967 RMK A01 T01191038  RH  033%=      5-min Rain = 0
KLD1 220915Z 20009KT 12/M03 A2967 RMK A01 T01211034  RH  034%=      5-min Rain = 0
KLD1 220920Z 20009KT 12/M03 A2967 RMK A01 T01211031  RH  035%=      5-min Rain = 0
KLD1 220925Z 20010KT 12/M02 A2967 RMK A01 T01241021  RH  037%=      5-min Rain = 0
KLD1 220930Z 20009KT 13/M02 A2967 RMK A01 T01271016  RH  037%=      5-min Rain = 0
KLD1 220935Z 20009KT 13/M01 A2967 RMK A01 T01261014  RH  038%=      5-min Rain = 0
KLD1 220940Z 20009KT 13/M01 A2967 RMK A01 T01271011  RH  039%=      5-min Rain = 0
KLD1 220945Z 20009KT 13/M01 A2967 RMK A01 T01271006  RH  040%=      5-min Rain = 0
KLD1 220950Z 20010KT 13/00 A2967 RMK A01 T01290000  RH  042%=      5-min Rain = 0
KLD1 220955Z 21010KT 13/00 A2967 RMK A01 T01300004  RH  042%=      5-min Rain = 0
KLD1 221000Z 19011KT 14/01 A2967 RMK A01 T01350010  RH  043%=      5-min Rain = 0
KLD1 221005Z 22010KT 14/02 A2967 RMK A01 T01360015  RH  044%=      5-min Rain = 0
KLD1 221010Z 20011KT 13/02 A2967 RMK A01 T01330015  RH  045%=      5-min Rain = 0
KLD1 221015Z 19010KT 14/02 A2967 RMK A01 T01360021  RH  047%=      5-min Rain = 0
KLD1 221020Z 20011KT 14/02 A2967 RMK A01 T01350024  RH  048%=      5-min Rain = 0
KLD1 221025Z 19010KT 13/03 A2967 RMK A01 T01330025  RH  049%=      5-min Rain = 0
KLD1 221030Z 23007KT 13/02 A2967 RMK A01 T01270022  RH  050%=      5-min Rain = 0
KLD1 221035Z 20007KT 12/02 A2967 RMK A01 T01170015  RH  051%=      5-min Rain = 0
KLD1 221040Z 20009KT 12/02 A2967 RMK A01 T01200024  RH  053%=      5-min Rain = 0
KLD1 221045Z 19009KT 12/03 A2967 RMK A01 T01210026  RH  053%=      5-min Rain = 0
KLD1 221050Z 19009KT 12/03 A2967 RMK A01 T01220028  RH  054%=      5-min Rain = 0
KLD1 221055Z 19009KT 12/03 A2967 RMK A01 T01230030  RH  054%=      5-min Rain = 0
KLD1 221100Z 19009KT 12/03 A2967 RMK A01 T01200030  RH  055%=      5-min Rain = 0
KLD1 221105Z 19009KT 12/03 A2967 RMK A01 T01180031  RH  056%=      5-min Rain = 0
KLD1 221110Z 19009KT 12/03 A2967 RMK A01 T01170030  RH  056%=      5-min Rain = 0
KLD1 221115Z 18010KT 12/03 A2967 RMK A01 T01150031  RH  057%=      5-min Rain = 0
KLD1 221120Z 18010KT 12/03 A2967 RMK A01 T01150032  RH  058%=      5-min Rain = 0
KLD1 221125Z 18010KT 12/03 A2967 RMK A01 T01150032  RH  058%=      5-min Rain = 0
KLD1 221130Z 18009KT 12/03 A2967 RMK A01 T01150033  RH  058%=      5-min Rain = 0
KLD1 221135Z 19009KT 12/03 A2967 RMK A01 T01150034  RH  059%=      5-min Rain = 0
KLD1 221140Z 19010KT 12/04 A2967 RMK A01 T01150035  RH  059%=      5-min Rain = 0
KLD1 221145Z 19009KT 12/04 A2968 RMK A01 T01150036  RH  059%=      5-min Rain = 0
KLD1 221150Z 20007KT 12/04 A2968 RMK A01 T01150037  RH  060%=      5-min Rain = 0
KLD1 221155Z 22005KT 11/04 A2968 RMK A01 T01130036  RH  060%=      5-min Rain = 0
KLD1 221200Z 22005KT 11/04 A2969 RMK A01 T01100036  RH  062%=      5-min Rain = 0
KLD1 221205Z 21006KT 11/04 A2969 RMK A01 T01130039  RH  061%=      5-min Rain = 0
KLD1 221210Z 20007KT 12/04 A2969 RMK A01 T01170040  RH  060%=      5-min Rain = 0
KLD1 221215Z 20008KT 12/04 A2969 RMK A01 T01210042  RH  060%=      5-min Rain = 0
KLD1 221220Z 20009KT 13/04 A2969 RMK A01 T01260044  RH  059%=      5-min Rain = 0
KLD1 221225Z 20009KT 13/05 A2969 RMK A01 T01280046  RH  058%=      5-min Rain = 0
KLD1 221230Z 21009KT 13/05 A2969 RMK A01 T01320048  RH  058%=      5-min Rain = 0
KLD1 221235Z 20010KT 14/05 A297 RMK A01 T01380050  RH  056%=      5-min Rain = 0
KLD1 221240Z 21008KT 14/05 A297 RMK A01 T01420051  RH  055%=      5-min Rain = 0
KLD1 221245Z 21009KT 15/05 A297 RMK A01 T01470052  RH  054%=      5-min Rain = 0
KLD1 221250Z 21010KT 15/05 A2971 RMK A01 T01520053  RH  053%=      5-min Rain = 0
KLD1 221255Z 21009KT 16/05 A2971 RMK A01 T01560053  RH  052%=      5-min Rain = 0
KLD1 221300Z 24007KT 16/05 A2971 RMK A01 T01590053  RH  050%=      5-min Rain = 0
KLD1 221305Z 27007KT 16/06 A2971 RMK A01 T01610055  RH  050%=      5-min Rain = 0
KLD1 221310Z 29008KT 16/05 A2972 RMK A01 T01550050  RH  050%=      5-min Rain = 0
KLD1 221315Z 29007G12KT 15/05 A2972 RMK A01 T01450046  RH  052%=      5-min Rain = 0
KLD1 221320Z 29009KT 15/04 A2972 RMK A01 T01460044  RH  051%=      5-min Rain = 0
KLD1 221325Z 28008KT 14/04 A2972 RMK A01 T01440038  RH  050%=      5-min Rain = 0
KLD1 221330Z 29009KT 15/04 A2972 RMK A01 T01490038  RH  048%=      5-min Rain = 0
KLD1 221335Z 26008KT 15/04 A2972 RMK A01 T01510036  RH  047%=      5-min Rain = 0
KLD1 221340Z 27009KT 16/04 A2972 RMK A01 T01560036  RH  045%=      5-min Rain = 0
KLD1 221345Z 26007KT 16/04 A2972 RMK A01 T01590035  RH  044%=      5-min Rain = 0
KLD1 221350Z 25008KT 16/04 A2973 RMK A01 T01640035  RH  043%=      5-min Rain = 0
KLD1 221355Z 24009KT 17/04 A2973 RMK A01 T01670035  RH  042%=      5-min Rain = 0
KLD1 221400Z 25008KT 17/04 A2973 RMK A01 T01730035  RH  040%=      5-min Rain = 0
KLD1 221405Z 25009KT 18/03 A2973 RMK A01 T01760033  RH  039%=      5-min Rain = 0
KLD1 221410Z 23009KT 18/03 A2973 RMK A01 T01790031  RH  038%=      5-min Rain = 0
KLD1 221415Z 23007KT 18/03 A2974 RMK A01 T01840032  RH  037%=      5-min Rain = 0
KLD1 221420Z 22009KT 19/03 A2974 RMK A01 T01880032  RH  036%=      5-min Rain = 0
KLD1 221425Z 23009KT 19/03 A2974 RMK A01 T01930032  RH  035%=      5-min Rain = 0
KLD1 221430Z 22009KT 20/03 A2974 RMK A01 T01970031  RH  034%=      5-min Rain = 0
KLD1 221435Z 22009KT 21/03 A2974 RMK A01 T02050031  RH  032%=      5-min Rain = 0
KLD1 221440Z 22009KT 21/03 A2974 RMK A01 T02080031  RH  032%=      5-min Rain = 0
KLD1 221445Z 22010KT 21/03 A2974 RMK A01 T02140026  RH  029%=      5-min Rain = 0
KLD1 221450Z 22010KT 22/02 A2974 RMK A01 T02190019  RH  027%=      5-min Rain = 0
KLD1 221455Z 21011KT 22/01 A2974 RMK A01 T02240009  RH  024%=      5-min Rain = 0
KLD1 221500Z 22011KT 23/M01 A2974 RMK A01 T02291006  RH  021%=      5-min Rain = 0
KLD1 221505Z 21012G17KT 23/M01 A2974 RMK A01 T02311005  RH  021%=      5-min Rain = 0
KLD1 221510Z 20014KT 24/M01 A2974 RMK A01 T02371010  RH  020%=      5-min Rain = 0
KLD1 221515Z 20014G19KT 24/M02 A2975 RMK A01 T02381018  RH  018%=      5-min Rain = 0
KLD1 221520Z 22014KT 24/M02 A2974 RMK A01 T02421021  RH  017%=      5-min Rain = 0
KLD1 221525Z 23015G20KT 24/M03 A2974 RMK A01 T02411030  RH  016%=      5-min Rain = 0
KLD1 221530Z 22016G21KT 24/M03 A2975 RMK A01 T02431031  RH  016%=      5-min Rain = 0
KLD1 221535Z 22019G25KT 24/M04 A2975 RMK A01 T02431035  RH  016%=      5-min Rain = 0
KLD1 221540Z 22018KT 25/M04 A2975 RMK A01 T02451037  RH  015%=      5-min Rain = 0
KLD1 221545Z 23016G21KT 25/M03 A2974 RMK A01 T02491034  RH  015%=      5-min Rain = 0
KLD1 221550Z 22015G21KT 26/M04 A2974 RMK A01 T02561037  RH  014%=      5-min Rain = 0
KLD1 221555Z 23017G23KT 26/M04 A2974 RMK A01 T02581043  RH  013%=      5-min Rain = 0
KLD1 221600Z 24015KT 26/M04 A2974 RMK A01 T02611043  RH  013%=      5-min Rain = 0
KLD1 221605Z 22017G23KT 27/M05 A2974 RMK A01 T02661054  RH  012%=      5-min Rain = 0
KLD1 221610Z 22021G26KT 27/M07 A2974 RMK A01 T02711066  RH  010%=      5-min Rain = 0
KLD1 221615Z 23019G28KT 27/M07 A2974 RMK A01 T02721071  RH  010%=      5-min Rain = 0
KLD1 221620Z 22020G27KT 28/M07 A2974 RMK A01 T02781071  RH  010%=      5-min Rain = 0
KLD1 221625Z 23020KT 28/M08 A2974 RMK A01 T02761075  RH  009%=      5-min Rain = 0
KLD1 221630Z 23022G28KT 28/M08 A2974 RMK A01 T02761079  RH  009%=      5-min Rain = 0
KLD1 221635Z 22020G26KT 28/M07 A2974 RMK A01 T02781074  RH  009%=      5-min Rain = 0
KLD1 221640Z 22020G28KT 28/M08 A2974 RMK A01 T02821075  RH  009%=      5-min Rain = 0
KLD1 221645Z 23020G25KT 28/M08 A2974 RMK A01 T02821078  RH  009%=      5-min Rain = 0
KLD1 221650Z 23022G28KT 28/M08 A2974 RMK A01 T02811078  RH  009%=      5-min Rain = 0
KLD1 221655Z 22021G29KT 28/M08 A2974 RMK A01 T02811078  RH  009%=      5-min Rain = 0
KLD1 221700Z 23022G29KT 28/M08 A2974 RMK A01 T02831079  RH  009%=      5-min Rain = 0
KLD1 221705Z 23022G28KT 29/M08 A2975 RMK A01 T02851078  RH  009%=      5-min Rain = 0
KLD1 221710Z 23021G29KT 29/M08 A2975 RMK A01 T02911078  RH  008%=      5-min Rain = 0
KLD1 221715Z 23024G31KT 29/M08 A2974 RMK A01 T02881081  RH  008%=      5-min Rain = 0
KLD1 221720Z 22024G30KT 29/M08 A2974 RMK A01 T02881084  RH  008%=      5-min Rain = 0
KLD1 221725Z 22024G29KT 29/M08 A2974 RMK A01 T02901082  RH  008%=      5-min Rain = 0
KLD1 221730Z 23022G30KT 29/M08 A2974 RMK A01 T02901083  RH  008%=      5-min Rain = 0
KLD1 221735Z 23022G29KT 29/M08 A2974 RMK A01 T02911083  RH  008%=      5-min Rain = 0
KLD1 221740Z 24023G28KT 29/M09 A2974 RMK A01 T02941085  RH  008%=      5-min Rain = 0
KLD1 221745Z 23022G28KT 30/M08 A2974 RMK A01 T02971084  RH  008%=      5-min Rain = 0
KLD1 221750Z 24022G27KT 30/M09 A2974 RMK A01 T02971085  RH  008%=      5-min Rain = 0
KLD1 221755Z 22024G30KT 30/M09 A2974 RMK A01 T02971088  RH  008%=      5-min Rain = 0
KLD1 221800Z 23021G27KT 30/M09 A2974 RMK A01 T02961088  RH  008%=      5-min Rain = 0
KLD1 221805Z 23023G28KT 30/M08 A2974 RMK A01 T03001078  RH  008%=      5-min Rain = 0
KLD1 221810Z 23021G28KT 30/M08 A2974 RMK A01 T02981076  RH  008%=      5-min Rain = 0
KLD1 221815Z 24021G28KT 30/M07 A2973 RMK A01 T03021073  RH  008%=      5-min Rain = 0
KLD1 221820Z 24023G28KT 30/M07 A2973 RMK A01 T03021073  RH  008%=      5-min Rain = 0
KLD1 221825Z 22022G29KT 30/M07 A2973 RMK A01 T03021072  RH  008%=      5-min Rain = 0
KLD1 221830Z 22023G28KT 30/M08 A2973 RMK A01 T03031076  RH  008%=      5-min Rain = 0
KLD1 221835Z 23020G26KT 30/M07 A2973 RMK A01 T03031073  RH  008%=      5-min Rain = 0
KLD1 221840Z 22020G27KT 31/M07 A2973 RMK A01 T03061070  RH  008%=      5-min Rain = 0
KLD1 221845Z 22021G28KT 31/M08 A2973 RMK A01 T03051075  RH  008%=      5-min Rain = 0
KLD1 221850Z 23020G32KT 31/M08 A2973 RMK A01 T03061077  RH  008%=      5-min Rain = 0
KLD1 221855Z 23020G27KT 31/M07 A2973 RMK A01 T03061073  RH  008%=      5-min Rain = 0
KLD1 221900Z 21020G27KT 31/M07 A2973 RMK A01 T03121070  RH  008%=      5-min Rain = 0
KLD1 221905Z 22018G25KT 31/M07 A2973 RMK A01 T03121072  RH  008%=      5-min Rain = 0
KLD1 221910Z 20021G26KT 31/M07 A2973 RMK A01 T03111072  RH  008%=      5-min Rain = 0
KLD1 221915Z 21020G26KT 31/M07 A2973 RMK A01 T03121072  RH  008%=      5-min Rain = 0
KLD1 221920Z 21020G26KT 31/M07 A2973 RMK A01 T03141071  RH  008%=      5-min Rain = 0
KLD1 221925Z 21019G25KT 31/M07 A2973 RMK A01 T03131071  RH  008%=      5-min Rain = 0
KLD1 221930Z 21019G33KT 31/M07 A2973 RMK A01 T03141074  RH  008%=      5-min Rain = 0
KLD1 221935Z 22017G24KT 31/M07 A2973 RMK A01 T03101070  RH  008%=      5-min Rain = 0
KLD1 221940Z 20018G24KT 31/M07 A2973 RMK A01 T03141069  RH  008%=      5-min Rain = 0
KLD1 221945Z 21018G28KT 31/M07 A2972 RMK A01 T03141067  RH  008%=      5-min Rain = 0
KLD1 221950Z 21018G27KT 31/M07 A2973 RMK A01 T03131068  RH  008%=      5-min Rain = 0
KLD1 221955Z 22018G23KT 31/M07 A2972 RMK A01 T03141069  RH  008%=      5-min Rain = 0
KLD1 222000Z 21018G24KT 32/M07 A2973 RMK A01 T03171068  RH  008%=      5-min Rain = 0
KLD1 222005Z 19016G25KT 32/M07 A2973 RMK A01 T03171065  RH  008%=      5-min Rain = 0
KLD1 222010Z 20021G28KT 32/M07 A2972 RMK A01 T03171065  RH  008%=      5-min Rain = 0
KLD1 222015Z 20018G25KT 32/M07 A2973 RMK A01 T03181065  RH  008%=      5-min Rain = 0
KLD1 222020Z 21016G27KT 32/M07 A2973 RMK A01 T03171065  RH  008%=      5-min Rain = 0
KLD1 222025Z 20018G24KT 32/M06 A2973 RMK A01 T03171062  RH  008%=      5-min Rain = 0
KLD1 222030Z 22017G27KT 32/M06 A2972 RMK A01 T03191060  RH  008%=      5-min Rain = 0
KLD1 222035Z 20018G28KT 32/M06 A2972 RMK A01 T03201062  RH  008%=      5-min Rain = 0
KLD1 222040Z 20015G22KT 32/M06 A2972 RMK A01 T03221057  RH  008%=      5-min Rain = 0
KLD1 222045Z 19017KT 32/M06 A2972 RMK A01 T03241057  RH  008%=      5-min Rain = 0
KLD1 222050Z 20016G29KT 32/M05 A2972 RMK A01 T03191054  RH  009%=      5-min Rain = 0
KLD1 222055Z 19017G25KT 32/M05 A2972 RMK A01 T03201052  RH  009%=      5-min Rain = 0
KLD1 222100Z 21020G25KT 32/M06 A2972 RMK A01 T03191056  RH  009%=      5-min Rain = 0
KLD1 222105Z 21017G23KT 32/M05 A2972 RMK A01 T03221051  RH  009%=      5-min Rain = 0
KLD1 222110Z 21020G29KT 33/M05 A2972 RMK A01 T03251054  RH  008%=      5-min Rain = 0
KLD1 222115Z 22020G35KT 32/M06 A2972 RMK A01 T03241056  RH  008%=      5-min Rain = 0
KLD1 222120Z 19019G27KT 32/M05 A2972 RMK A01 T03241053  RH  008%=      5-min Rain = 0
KLD1 222125Z 19023G28KT 32/M06 A2972 RMK A01 T03231056  RH  008%=      5-min Rain = 0
KLD1 222130Z 21023G28KT 32/M06 A2972 RMK A01 T03231057  RH  008%=      5-min Rain = 0
KLD1 222135Z 21022G29KT 32/M06 A2971 RMK A01 T03241055  RH  008%=      5-min Rain = 0
KLD1 222140Z 19023G32KT 32/M05 A2972 RMK A01 T03241052  RH  009%=      5-min Rain = 0
KLD1 222145Z 19022G32KT 32/M05 A2971 RMK A01 T03201052  RH  009%=      5-min Rain = 0
KLD1 222150Z 21023G30KT 33/M05 A2971 RMK A01 T03271049  RH  009%=      5-min Rain = 0
KLD1 222155Z 21020G30KT 33/M05 A2971 RMK A01 T03251048  RH  009%=      5-min Rain = 0
KLD1 222200Z 21024G29KT 32/M05 A2971 RMK A01 T03241053  RH  009%=      5-min Rain = 0
KLD1 222205Z 20021G29KT 32/M05 A2972 RMK A01 T03211053  RH  009%=      5-min Rain = 0
KLD1 222210Z 21021G29KT 32/M05 A2972 RMK A01 T03231051  RH  009%=      5-min Rain = 0
KLD1 222215Z 20020G30KT 32/M05 A2972 RMK A01 T03231052  RH  009%=      5-min Rain = 0
KLD1 222220Z 20023G29KT 32/M05 A2972 RMK A01 T03231054  RH  008%=      5-min Rain = 0
KLD1 222225Z 21019G28KT 32/M06 A2972 RMK A01 T03201055  RH  009%=      5-min Rain = 0
KLD1 222230Z 21020G25KT 32/M05 A2972 RMK A01 T03221053  RH  009%=      5-min Rain = 0
KLD1 222235Z 21018G23KT 33/M06 A2972 RMK A01 T03251055  RH  008%=      5-min Rain = 0
KLD1 222240Z 21019G26KT 32/M05 A2972 RMK A01 T03221052  RH  009%=      5-min Rain = 0
KLD1 222245Z 19021G29KT 32/M05 A2972 RMK A01 T03221051  RH  009%=      5-min Rain = 0
KLD1 222250Z 20021G29KT 32/M05 A2972 RMK A01 T03201053  RH  009%=      5-min Rain = 0
KLD1 222255Z 21020G27KT 32/M05 A2972 RMK A01 T03211052  RH  009%=      5-min Rain = 0
KLD1 222300Z 21022G27KT 32/M05 A2972 RMK A01 T03181051  RH  009%=      5-min Rain = 0
KLD1 222305Z 20022G28KT 32/M05 A2972 RMK A01 T03171049  RH  009%=      5-min Rain = 0
KLD1 222310Z 19020G27KT 32/M05 A2973 RMK A01 T03161048  RH  009%=      5-min Rain = 0
KLD1 222315Z 19021G27KT 32/M05 A2973 RMK A01 T03161049  RH  009%=      5-min Rain = 0
KLD1 222320Z 19021G28KT 31/M05 A2973 RMK A01 T03131050  RH  009%=      5-min Rain = 0
KLD1 222325Z 19015G20KT 31/M05 A2972 RMK A01 T03121049  RH  009%=      5-min Rain = 0
KLD1 222330Z 19019G25KT 32/M05 A2972 RMK A01 T03151049  RH  009%=      5-min Rain = 0
KLD1 222335Z 19019G26KT 32/M05 A2972 RMK A01 T03161052  RH  009%=      5-min Rain = 0
KLD1 222340Z 19023G28KT 31/M05 A2972 RMK A01 T03141053  RH  009%=      5-min Rain = 0
KLD1 222345Z 20020G25KT 31/M05 A2972 RMK A01 T03131052  RH  009%=      5-min Rain = 0
KLD1 222350Z 20019KT 32/M05 A2972 RMK A01 T03151050  RH  009%=      5-min Rain = 0
KLD1 222355Z 20020G25KT 32/M05 A2972 RMK A01 T03151048  RH  009%=      5-min Rain = 0
KLD1 230000Z 20019G25KT 31/M05 A2972 RMK A01 T03131051  RH  009%=      5-min Rain = 0
KLD1 230005Z 21018G24KT 31/M05 A2972 RMK A01 T03141050  RH  009%=      5-min Rain = 0
KLD1 230010Z 20017G22KT 31/M05 A2972 RMK A01 T03141050  RH  009%=      5-min Rain = 0
KLD1 230015Z 20020G25KT 31/M05 A2972 RMK A01 T03131053  RH  009%=      5-min Rain = 0
KLD1 230020Z 20020G26KT 31/M06 A2972 RMK A01 T03111055  RH  009%=      5-min Rain = 0
KLD1 230025Z 20016G21KT 31/M05 A2972 RMK A01 T03101054  RH  009%=      5-min Rain = 0
KLD1 230030Z 19017G23KT 31/M05 A2972 RMK A01 T03101052  RH  009%=      5-min Rain = 0
KLD1 230035Z 18017G22KT 31/M05 A2972 RMK A01 T03081053  RH  009%=      5-min Rain = 0
KLD1 230040Z 19018KT 31/M05 A2972 RMK A01 T03071053  RH  009%=      5-min Rain = 0
KLD1 230045Z 19016G22KT 31/M05 A2972 RMK A01 T03061054  RH  009%=      5-min Rain = 0
KLD1 230050Z 18015G20KT 31/M06 A2972 RMK A01 T03051055  RH  009%=      5-min Rain = 0
KLD1 230055Z 18016KT 30/M06 A2972 RMK A01 T03041055  RH  009%=      5-min Rain = 0
KLD1 230100Z 18018KT 30/M06 A2973 RMK A01 T03031056  RH  009%=      5-min Rain = 0
KLD1 230105Z 18017KT 30/M06 A2973 RMK A01 T03001056  RH  010%=      5-min Rain = 0
KLD1 230110Z 16014G19KT 30/M05 A2973 RMK A01 T02971046  RH  011%=      5-min Rain = 0
KLD1 230115Z 15016KT 29/M02 A2973 RMK A01 T02921017  RH  013%=      5-min Rain = 0
KLD1 230120Z 15014G19KT 29/M01 A2973 RMK A01 T02881014  RH  014%=      5-min Rain = 0
KLD1 230125Z 15014KT 29/M01 A2973 RMK A01 T02851012  RH  015%=      5-min Rain = 0
KLD1 230130Z 15013KT 28/M01 A2974 RMK A01 T02811011  RH  015%=      5-min Rain = 0
KLD1 230135Z 15013KT 28/M01 A2974 RMK A01 T02771011  RH  015%=      5-min Rain = 0
KLD1 230140Z 15013KT 27/M01 A2974 RMK A01 T02741013  RH  015%=      5-min Rain = 0
KLD1 230145Z 14012KT 27/M01 A2974 RMK A01 T02721014  RH  015%=      5-min Rain = 0
KLD1 230150Z 14011KT 27/M01 A2975 RMK A01 T02671009  RH  017%=      5-min Rain = 0
KLD1 230155Z 14012KT 27/01 A2975 RMK A01 T02670007  RH  019%=      5-min Rain = 0
KLD1 230200Z 14012KT 26/02 A2975 RMK A01 T02640022  RH  021%=      5-min Rain = 0
KLD1 230205Z 14012KT 26/03 A2975 RMK A01 T02610033  RH  023%=      5-min Rain = 0
KLD1 230210Z 14010KT 26/04 A2975 RMK A01 T02550038  RH  025%=      5-min Rain = 0
KLD1 230215Z 14011KT 25/05 A2976 RMK A01 T02530046  RH  027%=      5-min Rain = 0
KLD1 230220Z 14012KT 25/06 A2976 RMK A01 T02520056  RH  029%=      5-min Rain = 0
KLD1 230225Z 14012KT 25/06 A2976 RMK A01 T02520064  RH  031%=      5-min Rain = 0
KLD1 230230Z 14011KT 25/07 A2976 RMK A01 T02500068  RH  032%=      5-min Rain = 0
KLD1 230235Z 13011KT 25/07 A2977 RMK A01 T02460071  RH  033%=      5-min Rain = 0
KLD1 230240Z 13011KT 24/07 A2977 RMK A01 T02440073  RH  034%=      5-min Rain = 0
KLD1 230245Z 14012KT 24/08 A2977 RMK A01 T02440078  RH  035%=      5-min Rain = 0
KLD1 230250Z 14013KT 24/08 A2977 RMK A01 T02440082  RH  036%=      5-min Rain = 0
KLD1 230255Z 14013KT 25/08 A2978 RMK A01 T02450084  RH  037%=      5-min Rain = 0
KLD1 230300Z 14013KT 24/09 A2978 RMK A01 T02440085  RH  037%=      5-min Rain = 0
KLD1 230305Z 13012KT 24/09 A2978 RMK A01 T02420086  RH  038%=      5-min Rain = 0
KLD1 230310Z 13012KT 24/09 A2978 RMK A01 T02400086  RH  039%=      5-min Rain = 0
KLD1 230315Z 13012G17KT 24/09 A2979 RMK A01 T02400088  RH  039%=      5-min Rain = 0
KLD1 230320Z 13012KT 24/09 A2979 RMK A01 T02390089  RH  040%=      5-min Rain = 0
KLD1 230325Z 14012KT 24/09 A2979 RMK A01 T02370090  RH  040%=      5-min Rain = 0
KLD1 230330Z 13013KT 24/09 A2979 RMK A01 T02370092  RH  041%=      5-min Rain = 0
KLD1 230335Z 13013KT 24/09 A2979 RMK A01 T02370094  RH  042%=      5-min Rain = 0
KLD1 230340Z 13013KT 24/10 A298 RMK A01 T02350097  RH  043%=      5-min Rain = 0
KLD1 230345Z 13013KT 23/10 A298 RMK A01 T02340101  RH  044%=      5-min Rain = 0
KLD1 230350Z 13013KT 23/10 A298 RMK A01 T02330104  RH  046%=      5-min Rain = 0
KLD1 230355Z 13012KT 23/11 A298 RMK A01 T02310107  RH  047%=      5-min Rain = 0
KLD1 230400Z 13013G18KT 23/11 A2981 RMK A01 T02320111  RH  048%=      5-min Rain = 0
KLD1 230405Z 14013KT 23/12 A2981 RMK A01 T02320115  RH  050%=      5-min Rain = 0
KLD1 230410Z 14014KT 23/12 A2981 RMK A01 T02330122  RH  052%=      5-min Rain = 0
KLD1 230415Z 14016G21KT 24/13 A2981 RMK A01 T02360131  RH  054%=      5-min Rain = 0
KLD1 230420Z 14017KT 24/14 A2981 RMK A01 T02400138  RH  055%=      5-min Rain = 0
KLD1 230425Z 14016G21KT 24/14 A2981 RMK A01 T02410140  RH  056%=      5-min Rain = 0
KLD1 230430Z 14016KT 24/14 A2981 RMK A01 T02400143  RH  057%=      5-min Rain = 0
KLD1 230435Z 14016G21KT 24/15 A2982 RMK A01 T02400146  RH  058%=      5-min Rain = 0
KLD1 230440Z 14015G22KT 24/15 A2982 RMK A01 T02390147  RH  059%=      5-min Rain = 0
KLD1 230445Z 14016KT 24/15 A2982 RMK A01 T02380147  RH  059%=      5-min Rain = 0
KLD1 230450Z 14016KT 24/15 A2982 RMK A01 T02370147  RH  060%=      5-min Rain = 0
KLD1 230455Z 14016KT 24/15 A2982 RMK A01 T02360148  RH  061%=      5-min Rain = 0

Page generated in 0.0095 seconds.